• Join FlightAware (Why Join?)
  • Login
  • US Flag 
05:50AM EST


 

Airport Tracker/Info


-or-


 

Live Flight TrackerFlight Track Log ✈ TAM3900 ✈ 13-May-2013 ✈ SBSP / CGH - SBRJ / SDU

Flight Track Log - Related Links

Times and Time Zones

All times are in EDT time to prevent confusion due to time zone crossing. See the TAM3900 flight status page for this flight to view local times or setup timezone preferences in your user account.

Time Position Orientation Groundspeed Altitude Reporting Facility
EDT Latitude Longitude Course Direction KTS MPH feet Rate Location/Type
05:36AM -23.4063 -45.5355 78° East  Level Estimated
05:37AM -23.3922 -45.4657 78° East  Level Estimated
05:38AM -23.3782 -45.3958 78° East  Level Estimated
05:39AM -23.3641 -45.3260 78° East  Level Estimated
05:40AM -23.3499 -45.2562 78° East  Level Estimated
05:41AM -23.3358 -45.1864 78° East  Level Estimated
05:42AM -23.3216 -45.1166 78° East  Level Estimated
05:43AM -23.3073 -45.0468 77° East  Level Estimated
05:44AM -23.2931 -44.9771 77° East  Level Estimated
05:45AM -23.2788 -44.9073 77° East  Level Estimated
05:46AM -23.2645 -44.8376 77° East  Level Estimated
05:47AM -23.2501 -44.7679 77° East  Level Estimated
05:48AM -23.2357 -44.6982 77° East  Level Estimated
05:49AM -23.2213 -44.6285 77° East  Level Estimated
05:50AM -23.2069 -44.5588 77° East  Level Estimated
05:51AM -23.1924 -44.4892 77° East  Level Estimated
05:52AM -23.1779 -44.4195 77° East  Level Estimated
05:53AM -23.1634 -44.3499 77° East  Level Estimated
05:54AM -23.1488 -44.2803 77° East  Level Estimated
05:55AM -23.1342 -44.2107 77° East  Level Estimated
05:56AM -23.1196 -44.1411 77° East  Level Estimated
05:57AM -23.1049 -44.0716 77° East  Level Estimated
05:58AM -23.0903 -44.0020 77° East  Level Estimated
05:59AM -23.0755 -43.9325 77° East  Level Estimated
06:00AM -23.0608 -43.8630 77° East  Level Estimated
06:01AM -23.0460 -43.7935 77° East  Level Estimated
06:02AM -23.0312 -43.7240 77° East  Level Estimated
06:03AM -23.0163 -43.6545 77° East  Level Estimated
06:04AM -23.0015 -43.5850 77° East  Level Estimated
06:05AM -22.9866 -43.5156 77° East  Level Estimated
06:06AM -22.9716 -43.4462 77° East  Level Estimated
06:07AM -22.9567 -43.3768 77° East  Level Estimated